createdAt,value
2022-08-24T00:01:56.711Z,2.65
2022-08-24T00:04:23.415Z,2.88
2022-08-24T00:06:50.636Z,2.85
2022-08-24T00:09:17.066Z,2.78
2022-08-24T00:11:44.122Z,2.70
2022-08-24T00:14:11.988Z,2.88
2022-08-24T00:16:38.464Z,2.83
2022-08-24T00:19:05.597Z,2.88
2022-08-24T00:21:32.008Z,2.97
2022-08-24T00:23:58.498Z,2.63
2022-08-24T00:26:29.764Z,3.35
2022-08-24T00:28:57.728Z,2.97
2022-08-24T00:31:24.860Z,3.03
2022-08-24T00:33:51.325Z,3.10
2022-08-24T00:36:17.701Z,2.80
2022-08-24T00:38:44.151Z,2.60
2022-08-24T00:41:10.531Z,2.88
2022-08-24T00:43:37.477Z,2.50
2022-08-24T00:46:33.115Z,2.93
2022-08-24T00:49:06.746Z,2.50
2022-08-24T00:51:59.067Z,2.60
2022-08-24T00:54:28.610Z,3.13
2022-08-24T00:57:00.258Z,2.77
2022-08-24T00:59:32.761Z,2.50
2022-08-24T01:02:15.542Z,3.07
2022-08-24T01:04:51.671Z,2.70
2022-08-24T01:07:20.833Z,3.10
2022-08-24T01:09:47.435Z,3.00
2022-08-24T01:12:14.101Z,3.10
2022-08-24T01:14:40.527Z,2.88
2022-08-24T01:17:25.532Z,2.45
2022-08-24T01:19:55.334Z,3.10
2022-08-24T01:22:40.850Z,3.00
2022-08-24T01:25:08.343Z,2.92
2022-08-24T01:27:36.461Z,2.53
2022-08-24T01:30:09.092Z,2.83
2022-08-24T01:32:37.084Z,3.30
2022-08-24T01:35:05.202Z,2.50
2022-08-24T01:37:32.918Z,2.70
2022-08-24T01:40:03.490Z,2.73
2022-08-24T01:42:30.090Z,2.90
2022-08-24T01:44:57.025Z,2.88
2022-08-24T01:47:23.518Z,2.93
2022-08-24T01:49:49.957Z,2.90
2022-08-24T01:52:20.076Z,3.33
2022-08-24T01:54:46.535Z,2.60
2022-08-24T01:57:16.290Z,2.50
2022-08-24T01:59:43.973Z,3.10
2022-08-24T02:02:25.872Z,3.50
2022-08-24T02:04:52.542Z,3.00
2022-08-24T02:07:19.617Z,3.13
2022-08-24T02:09:47.141Z,3.00
2022-08-24T02:12:13.947Z,2.93
2022-08-24T02:14:40.768Z,2.90
2022-08-24T02:17:08.763Z,3.00
2022-08-24T02:19:37.464Z,3.10
2022-08-24T02:22:06.086Z,2.80
2022-08-24T02:24:33.101Z,2.80
2022-08-24T02:26:59.701Z,2.40
2022-08-24T02:29:26.229Z,2.67
2022-08-24T02:31:52.650Z,3.10
2022-08-24T02:34:19.112Z,2.80
2022-08-24T02:36:45.714Z,3.67
2022-08-24T02:39:12.163Z,2.70
2022-08-24T02:41:38.864Z,3.03
2022-08-24T02:44:06.594Z,2.83
2022-08-24T02:46:33.415Z,2.97
2022-08-24T02:49:10.984Z,3.03
2022-08-24T02:51:44.160Z,2.70
2022-08-24T02:54:14.330Z,3.10
2022-08-24T02:56:40.728Z,3.27
2022-08-24T02:59:07.187Z,3.40
2022-08-24T03:01:33.808Z,2.60
2022-08-24T03:04:00.531Z,3.20
2022-08-24T03:06:27.184Z,3.23
2022-08-24T03:08:56.332Z,3.00
2022-08-24T03:11:28.264Z,3.43
2022-08-24T03:14:01.938Z,3.13
2022-08-24T03:16:29.763Z,3.00
2022-08-24T03:18:56.387Z,3.03
2022-08-24T03:21:22.919Z,3.10
2022-08-24T03:23:49.598Z,3.00
2022-08-24T03:26:16.047Z,3.03
2022-08-24T03:28:44.595Z,3.07
2022-08-24T03:31:12.470Z,2.87
2022-08-24T03:33:39.012Z,3.30
2022-08-24T03:36:07.073Z,2.93
2022-08-24T03:38:35.486Z,2.77
2022-08-24T03:41:02.003Z,3.03
2022-08-24T03:43:46.705Z,3.20
2022-08-24T03:46:20.293Z,2.83
2022-08-24T03:48:47.553Z,2.97
2022-08-24T03:51:16.142Z,3.10
2022-08-24T03:53:43.542Z,2.80
2022-08-24T03:56:11.755Z,2.90
2022-08-24T03:58:41.756Z,3.00
2022-08-24T04:01:09.238Z,2.70
2022-08-24T04:03:37.384Z,2.93
2022-08-24T04:06:05.748Z,2.97
2022-08-24T04:08:32.642Z,3.33
2022-08-24T04:10:59.491Z,3.20
2022-08-24T04:13:26.005Z,3.23
2022-08-24T04:15:53.022Z,3.30
2022-08-24T04:18:20.329Z,3.20
2022-08-24T04:20:50.476Z,3.17
2022-08-24T04:23:17.368Z,3.07
2022-08-24T04:25:47.424Z,3.30
2022-08-24T04:28:18.314Z,3.03
2022-08-24T04:30:47.554Z,3.23
2022-08-24T04:33:14.374Z,3.57
2022-08-24T04:35:45.368Z,3.03
2022-08-24T04:38:11.800Z,3.20
2022-08-24T04:40:46.930Z,2.87
2022-08-24T04:43:19.855Z,3.17
2022-08-24T04:45:48.386Z,3.03
2022-08-24T04:48:16.045Z,3.60
2022-08-24T04:50:43.774Z,3.63
2022-08-24T04:53:13.492Z,3.20
2022-08-24T04:55:52.096Z,3.10
2022-08-24T04:58:19.315Z,3.37
2022-08-24T05:00:46.702Z,3.53
2022-08-24T05:03:13.482Z,3.60
2022-08-24T05:05:42.248Z,3.40
2022-08-24T05:08:10.269Z,3.53
2022-08-24T05:10:41.951Z,3.67
2022-08-24T05:13:09.214Z,3.60
2022-08-24T05:15:37.004Z,3.50
2022-08-24T05:18:03.611Z,3.70
2022-08-24T05:20:30.010Z,3.37
2022-08-24T05:22:58.989Z,3.73
2022-08-24T05:25:28.040Z,3.50
2022-08-24T05:27:54.414Z,3.50
2022-08-24T05:30:21.195Z,3.40
2022-08-24T05:32:49.189Z,3.67
2022-08-24T05:35:15.619Z,4.37
2022-08-24T05:37:43.229Z,3.80
2022-08-24T05:40:12.533Z,3.70
2022-08-24T05:42:40.416Z,3.83
2022-08-24T05:45:07.946Z,3.10
2022-08-24T05:47:34.963Z,3.20
2022-08-24T05:50:02.047Z,3.30
2022-08-24T05:52:29.123Z,3.70
2022-08-24T05:54:58.443Z,3.60
2022-08-24T05:57:26.885Z,3.40
2022-08-24T05:59:53.482Z,3.57
2022-08-24T06:02:20.406Z,3.60
2022-08-24T06:04:47.130Z,3.43
2022-08-24T06:07:15.706Z,3.60
2022-08-24T06:09:43.150Z,3.60
2022-08-24T06:12:12.133Z,3.33
2022-08-24T06:14:38.745Z,3.60
2022-08-24T06:17:07.533Z,3.60
2022-08-24T06:19:35.192Z,3.37
2022-08-24T06:22:01.615Z,3.10
2022-08-24T06:24:47.210Z,3.33
2022-08-24T06:27:21.289Z,3.80
2022-08-24T06:30:04.353Z,3.40
2022-08-24T06:32:30.799Z,3.60
2022-08-24T06:34:59.106Z,3.40
2022-08-24T06:37:29.157Z,3.70
2022-08-24T06:39:57.281Z,3.20
2022-08-24T06:42:29.389Z,3.20
2022-08-24T06:44:55.820Z,3.25
2022-08-24T06:47:22.286Z,2.90
2022-08-24T06:49:49.006Z,2.70
2022-08-24T06:52:15.539Z,2.73
2022-08-24T06:54:42.731Z,3.00
2022-08-24T06:57:09.161Z,3.00
2022-08-24T06:59:35.718Z,3.05
2022-08-24T07:02:02.331Z,2.92
2022-08-24T07:04:28.788Z,2.67
2022-08-24T07:06:56.091Z,2.88
2022-08-24T07:09:25.847Z,2.40
2022-08-24T07:11:52.619Z,2.47
2022-08-24T07:14:19.744Z,2.33
2022-08-24T07:16:47.001Z,2.55
2022-08-24T07:19:13.556Z,2.72
2022-08-24T07:21:40.755Z,2.20
2022-08-24T07:24:07.347Z,3.03
2022-08-24T07:26:36.992Z,2.60
2022-08-24T07:29:06.768Z,2.45
2022-08-24T07:31:35.679Z,2.60
2022-08-24T07:34:03.564Z,2.60
2022-08-24T07:36:30.166Z,2.60
2022-08-24T07:38:57.460Z,2.50
2022-08-24T07:44:15.517Z,2.40
2022-08-24T07:46:42.139Z,2.38
2022-08-24T07:49:29.300Z,2.38
2022-08-24T07:51:56.019Z,2.33
2022-08-24T07:54:22.604Z,2.83
2022-08-24T07:56:50.200Z,2.45
2022-08-24T07:59:17.801Z,2.63
2022-08-24T08:01:44.386Z,2.30
2022-08-24T08:04:11.395Z,2.22
2022-08-24T08:06:37.923Z,2.55
2022-08-24T08:09:06.257Z,2.70
2022-08-24T08:11:32.982Z,2.40
2022-08-24T08:13:59.646Z,2.30
2022-08-24T08:16:26.507Z,2.38
2022-08-24T08:19:09.186Z,2.85
2022-08-24T08:22:01.448Z,2.50
2022-08-24T08:24:28.133Z,2.47
2022-08-24T08:26:54.622Z,3.00
2022-08-24T08:29:21.356Z,2.30
2022-08-24T08:31:48.003Z,2.58
2022-08-24T08:34:14.408Z,2.40
2022-08-24T08:36:41.582Z,2.20
2022-08-24T08:39:10.490Z,2.50
2022-08-24T08:42:03.167Z,2.30
2022-08-24T08:45:03.078Z,2.13
2022-08-24T08:47:43.969Z,2.42
2022-08-24T08:50:19.939Z,2.30
2022-08-24T08:53:03.953Z,2.00
2022-08-24T08:55:45.349Z,2.45
2022-08-24T08:58:33.799Z,2.50
2022-08-24T09:01:19.211Z,2.90
2022-08-24T09:03:48.691Z,2.40
2022-08-24T09:06:36.688Z,2.50
2022-08-24T09:09:30.794Z,3.50
2022-08-24T09:12:25.335Z,2.50
2022-08-24T09:15:18.517Z,2.35
2022-08-24T09:17:55.420Z,2.80
2022-08-24T09:20:36.389Z,2.50
2022-08-24T09:23:36.763Z,2.35
2022-08-24T09:26:39.570Z,2.50
2022-08-24T09:29:16.816Z,2.33
2022-08-24T09:31:53.517Z,2.20
2022-08-24T09:34:46.745Z,2.78
2022-08-24T09:37:28.576Z,2.80
2022-08-24T09:40:19.427Z,2.50
2022-08-24T09:43:26.714Z,2.47
2022-08-24T09:46:12.372Z,2.40
2022-08-24T09:49:00.542Z,2.72
2022-08-24T09:52:05.959Z,2.60
2022-08-24T09:54:47.097Z,2.78
2022-08-24T09:57:21.684Z,2.78
2022-08-24T10:00:10.862Z,2.65
2022-08-24T10:02:54.388Z,3.00
2022-08-24T10:05:58.667Z,3.17
2022-08-24T10:08:55.807Z,2.58
2022-08-24T10:11:36.823Z,2.75
2022-08-24T10:14:19.466Z,2.42
2022-08-24T10:16:54.505Z,2.70
2022-08-24T10:19:43.404Z,2.50
2022-08-24T10:22:14.356Z,3.03
2022-08-24T10:25:01.808Z,2.58
2022-08-24T10:27:38.420Z,2.70
2022-08-24T10:30:26.735Z,2.70
2022-08-24T10:33:30.834Z,2.33
2022-08-24T10:36:12.416Z,2.50
2022-08-24T10:39:14.217Z,2.35
2022-08-24T10:42:39.954Z,2.80
2022-08-24T10:45:42.471Z,2.60
2022-08-24T10:48:21.346Z,2.35
2022-08-24T10:50:53.998Z,2.20
2022-08-24T10:53:23.926Z,2.25
2022-08-24T10:56:17.075Z,2.15
2022-08-24T10:59:04.351Z,2.10
2022-08-24T11:01:34.703Z,2.90
2022-08-24T11:04:04.343Z,2.42
2022-08-24T11:07:01.999Z,2.10
2022-08-24T11:09:53.083Z,2.08
2022-08-24T11:12:25.596Z,2.08
2022-08-24T11:14:54.927Z,2.30
2022-08-24T11:17:23.944Z,2.10
2022-08-24T11:19:51.800Z,2.10
2022-08-24T11:22:58.751Z,2.30
2022-08-24T11:25:30.023Z,2.45
2022-08-24T11:28:32.985Z,1.80
2022-08-24T11:31:00.600Z,2.13
2022-08-24T11:33:44.838Z,1.73
2022-08-24T11:36:21.319Z,1.70
2022-08-24T11:38:49.445Z,1.80
2022-08-24T11:41:25.663Z,1.85
2022-08-24T11:44:10.217Z,2.08
2022-08-24T11:47:53.657Z,2.00
2022-08-24T11:50:33.692Z,1.80
2022-08-24T11:53:18.620Z,1.70
2022-08-24T11:55:57.077Z,1.50
2022-08-24T11:58:37.947Z,1.55
2022-08-24T12:01:19.516Z,1.60
2022-08-24T12:04:07.915Z,1.83
2022-08-24T12:07:24.346Z,1.75
2022-08-24T12:10:02.702Z,1.90
2022-08-24T12:12:32.081Z,2.03
2022-08-24T12:15:11.594Z,1.65
2022-08-24T12:17:43.213Z,2.25
2022-08-24T12:20:21.051Z,1.85
2022-08-24T12:22:48.616Z,1.90
2022-08-24T12:25:35.473Z,1.73
2022-08-24T12:28:03.357Z,2.00
2022-08-24T12:30:30.474Z,1.60
2022-08-24T12:33:02.570Z,2.00
2022-08-24T12:35:42.311Z,2.00
2022-08-24T12:38:30.248Z,1.63
2022-08-24T12:41:14.642Z,2.00
2022-08-24T12:43:59.718Z,2.30
2022-08-24T12:46:27.113Z,1.95
2022-08-24T12:49:00.763Z,2.13
2022-08-24T12:52:05.123Z,1.90
2022-08-24T12:54:46.474Z,2.08
2022-08-24T12:57:35.058Z,1.88
2022-08-24T13:00:16.956Z,1.90
2022-08-24T13:02:48.028Z,2.03
2022-08-24T13:05:18.622Z,2.05
2022-08-24T13:07:48.878Z,1.70
2022-08-24T13:10:24.555Z,2.03
2022-08-24T13:12:54.536Z,2.03
2022-08-24T13:15:43.737Z,1.75
2022-08-24T13:18:10.892Z,1.85
2022-08-24T13:20:43.773Z,1.77
2022-08-24T13:23:18.818Z,1.90
2022-08-24T13:25:48.021Z,1.95
2022-08-24T13:28:48.543Z,1.80
2022-08-24T13:31:38.437Z,1.95
2022-08-24T13:34:10.865Z,1.90
2022-08-24T13:36:41.959Z,2.03
2022-08-24T13:39:23.577Z,1.98
2022-08-24T13:42:02.251Z,1.80
2022-08-24T13:45:07.690Z,2.03
2022-08-24T13:48:12.338Z,1.88
2022-08-24T13:51:13.929Z,2.22
2022-08-24T13:54:05.658Z,1.70
2022-08-24T13:56:37.966Z,1.83
2022-08-24T13:59:34.826Z,2.20
2022-08-24T14:02:07.363Z,2.30
2022-08-24T14:05:01.876Z,2.08
2022-08-24T14:08:02.097Z,2.33
2022-08-24T14:11:19.270Z,2.10
2022-08-24T14:13:56.574Z,1.80
2022-08-24T14:17:01.719Z,2.05
2022-08-24T14:19:59.916Z,2.15
2022-08-24T14:22:40.218Z,2.13
2022-08-24T14:25:18.487Z,1.88
2022-08-24T14:27:48.632Z,2.20
2022-08-24T14:30:17.780Z,2.30
2022-08-24T14:32:59.573Z,2.25
2022-08-24T14:35:32.094Z,2.05
2022-08-24T14:38:04.087Z,2.22
2022-08-24T14:40:52.574Z,1.98
2022-08-24T14:43:45.790Z,2.40
2022-08-24T14:46:21.029Z,2.70
2022-08-24T14:49:08.689Z,2.17
2022-08-24T14:51:54.176Z,1.83
2022-08-24T14:54:51.875Z,2.38
2022-08-24T14:57:42.584Z,2.10
2022-08-24T15:00:17.853Z,2.00
2022-08-24T15:03:08.689Z,1.73
2022-08-24T15:05:35.164Z,1.92
2022-08-24T15:08:12.445Z,1.90
2022-08-24T15:11:08.813Z,1.83
2022-08-24T15:13:52.039Z,2.00
2022-08-24T15:16:53.285Z,1.90
2022-08-24T15:19:50.854Z,2.30
2022-08-24T15:22:35.505Z,1.88
2022-08-24T15:25:15.082Z,2.25
2022-08-24T15:27:53.686Z,2.00
2022-08-24T15:30:27.121Z,1.90
2022-08-24T15:33:07.464Z,2.20
2022-08-24T15:35:38.135Z,2.00
2022-08-24T15:38:31.108Z,2.22
2022-08-24T15:41:20.601Z,1.88
2022-08-24T15:43:49.761Z,2.25
2022-08-24T15:46:21.743Z,2.20
2022-08-24T15:48:50.643Z,2.30
2022-08-24T15:51:43.402Z,2.28
2022-08-24T15:54:41.176Z,2.20
2022-08-24T15:57:25.709Z,2.10
2022-08-24T15:59:54.655Z,2.03
2022-08-24T16:02:30.736Z,2.00
2022-08-24T16:05:25.541Z,2.20
2022-08-24T16:08:04.251Z,2.00
2022-08-24T16:10:39.747Z,2.45
2022-08-24T16:13:11.962Z,1.95
2022-08-24T16:15:51.320Z,2.28
2022-08-24T16:18:20.524Z,2.45
2022-08-24T16:20:48.933Z,1.90
2022-08-24T16:23:33.706Z,2.20
2022-08-24T16:26:23.487Z,2.13
2022-08-24T16:28:51.871Z,2.25
2022-08-24T16:31:40.488Z,2.33
2022-08-24T16:34:43.770Z,2.22
2022-08-24T16:37:10.467Z,2.30
2022-08-24T16:39:36.895Z,2.40
2022-08-24T16:42:07.897Z,2.10
2022-08-24T16:44:38.404Z,2.33
2022-08-24T16:47:05.909Z,2.50
2022-08-24T16:49:33.847Z,2.08
2022-08-24T16:52:02.241Z,2.25
2022-08-24T16:54:29.691Z,2.20
2022-08-24T16:56:58.273Z,2.38
2022-08-24T16:59:31.931Z,2.10
2022-08-24T17:01:59.530Z,2.35
2022-08-24T17:04:26.289Z,2.30
2022-08-24T17:06:55.489Z,2.10
2022-08-24T17:09:22.493Z,2.47
2022-08-24T17:11:49.747Z,2.40
2022-08-24T17:14:16.415Z,2.40
2022-08-24T17:16:43.382Z,2.30
2022-08-24T17:19:13.994Z,2.47
2022-08-24T17:21:41.033Z,2.17
2022-08-24T17:24:08.939Z,2.35
2022-08-24T17:26:36.329Z,2.40
2022-08-24T17:29:06.805Z,4.25
2022-08-24T17:31:33.758Z,2.60
2022-08-24T17:34:00.414Z,2.10
2022-08-24T17:36:31.159Z,2.15
2022-08-24T17:38:59.842Z,2.50
2022-08-24T17:41:27.264Z,2.80
2022-08-24T17:43:54.915Z,2.78
2022-08-24T17:46:22.409Z,2.70
2022-08-24T17:48:49.329Z,2.67
2022-08-24T17:51:18.490Z,2.92
2022-08-24T17:53:45.075Z,2.70
2022-08-24T17:56:13.225Z,2.75
2022-08-24T17:58:58.611Z,2.85
2022-08-24T18:01:25.969Z,2.58
2022-08-24T18:03:52.549Z,2.78
2022-08-24T18:06:30.488Z,3.15
2022-08-24T18:09:02.761Z,2.55
2022-08-24T18:11:29.911Z,2.40
2022-08-24T18:13:56.335Z,10.65
2022-08-24T18:16:24.868Z,3.78
2022-08-24T18:18:55.162Z,2.90
2022-08-24T18:21:22.452Z,2.70
2022-08-24T18:23:50.285Z,2.40
2022-08-24T18:26:21.935Z,3.20
2022-08-24T18:28:53.983Z,2.85
2022-08-24T18:31:23.149Z,2.95
2022-08-24T18:33:50.648Z,2.40
2022-08-24T18:36:17.429Z,3.08
2022-08-24T18:38:43.825Z,2.60
2022-08-24T18:41:11.047Z,2.58
2022-08-24T18:43:37.658Z,2.88
2022-08-24T18:46:06.303Z,3.47
2022-08-24T18:48:32.856Z,2.88
2022-08-24T18:50:59.338Z,2.50
2022-08-24T18:53:27.497Z,5.15
2022-08-24T18:55:54.004Z,3.05
2022-08-24T18:58:20.761Z,2.63
2022-08-24T19:00:49.061Z,3.10
2022-08-24T19:03:19.526Z,2.85
2022-08-24T19:05:46.462Z,3.08
2022-08-24T19:08:13.194Z,2.63
2022-08-24T19:10:40.028Z,3.10
2022-08-24T19:13:10.156Z,3.33
2022-08-24T19:15:40.167Z,3.10
2022-08-24T19:18:10.050Z,2.78
2022-08-24T19:20:42.285Z,3.17
2022-08-24T19:23:13.634Z,2.70
2022-08-24T19:25:44.164Z,3.00
2022-08-24T19:28:11.407Z,4.65
2022-08-24T19:30:38.072Z,4.00
2022-08-24T19:33:09.266Z,3.78
2022-08-24T19:35:38.371Z,3.55
2022-08-24T19:38:04.790Z,2.58
2022-08-24T19:40:32.383Z,3.40
2022-08-24T19:43:02.038Z,3.45
2022-08-24T19:45:47.126Z,3.50
2022-08-24T19:48:13.626Z,2.97
2022-08-24T19:50:40.815Z,3.28
2022-08-24T19:53:10.244Z,3.30
2022-08-24T19:55:36.728Z,5.57
2022-08-24T19:58:08.843Z,5.30
2022-08-24T20:00:48.303Z,5.32
2022-08-24T20:03:18.642Z,3.83
2022-08-24T20:05:45.651Z,3.88
2022-08-24T20:08:12.545Z,3.63
2022-08-24T20:10:39.272Z,3.45
2022-08-24T20:13:05.984Z,4.13
2022-08-24T20:15:32.981Z,4.88
2022-08-24T20:17:59.861Z,4.22
2022-08-24T20:20:28.010Z,4.50
2022-08-24T20:22:54.940Z,3.40
2022-08-24T20:25:21.643Z,3.45
2022-08-24T20:27:48.995Z,3.97
2022-08-24T20:30:17.076Z,3.53
2022-08-24T20:32:43.614Z,3.30
2022-08-24T20:35:10.666Z,3.17
2022-08-24T20:37:40.203Z,3.03
2022-08-24T20:40:08.602Z,2.92
2022-08-24T20:42:35.110Z,2.75
2022-08-24T20:45:01.556Z,2.72
2022-08-24T20:47:28.210Z,2.75
2022-08-24T20:49:54.967Z,3.40
2022-08-24T20:52:21.586Z,3.20
2022-08-24T20:54:48.266Z,2.50
2022-08-24T20:57:18.099Z,2.83
2022-08-24T20:59:45.235Z,3.05
2022-08-24T21:02:11.849Z,2.92
2022-08-24T21:04:38.646Z,2.55
2022-08-24T21:07:05.130Z,2.55
2022-08-24T21:09:31.958Z,3.13
2022-08-24T21:11:58.390Z,2.80
2022-08-24T21:14:24.800Z,2.70
2022-08-24T21:16:51.590Z,2.95
2022-08-24T21:19:18.124Z,2.70
2022-08-24T21:21:46.596Z,2.85
2022-08-24T21:24:13.002Z,2.72
2022-08-24T21:26:39.802Z,3.30
2022-08-24T21:29:07.680Z,2.60
2022-08-24T21:31:34.682Z,3.08
2022-08-24T21:34:20.144Z,2.63
2022-08-24T21:36:48.002Z,2.63
2022-08-24T21:39:14.717Z,2.50
2022-08-24T21:41:41.150Z,2.63
2022-08-24T21:44:07.611Z,1.95
2022-08-24T21:46:36.894Z,2.30
2022-08-24T21:49:04.352Z,2.20
2022-08-24T21:51:31.182Z,2.40
2022-08-24T21:53:59.573Z,2.70
2022-08-24T21:56:31.135Z,2.47
2022-08-24T21:58:58.463Z,2.13
2022-08-24T22:01:25.055Z,2.25
2022-08-24T22:03:51.514Z,2.55
2022-08-24T22:06:18.323Z,2.28
2022-08-24T22:08:44.774Z,2.15
2022-08-24T22:11:13.809Z,2.20
2022-08-24T22:13:40.902Z,2.25
2022-08-24T22:16:07.838Z,2.10
2022-08-24T22:18:34.617Z,1.92
2022-08-24T22:21:09.114Z,1.90
2022-08-24T22:23:35.686Z,2.03
2022-08-24T22:26:02.163Z,2.28
2022-08-24T22:28:28.639Z,1.90
2022-08-24T22:30:56.257Z,1.83
2022-08-24T22:33:23.291Z,2.00
2022-08-24T22:35:51.656Z,2.28
2022-08-24T22:38:18.935Z,2.00
2022-08-24T22:40:45.382Z,2.08
2022-08-24T22:43:12.724Z,1.92
2022-08-24T22:45:39.227Z,2.30
2022-08-24T22:48:05.647Z,1.98
2022-08-24T22:50:32.616Z,2.05
2022-08-24T22:52:59.432Z,2.10
2022-08-24T22:55:26.681Z,2.13
2022-08-24T22:57:53.286Z,1.95
2022-08-24T23:00:20.317Z,2.10
2022-08-24T23:02:46.840Z,1.77
2022-08-24T23:05:13.319Z,2.00
2022-08-24T23:07:40.112Z,2.38
2022-08-24T23:10:07.399Z,2.38
2022-08-24T23:12:33.837Z,1.80
2022-08-24T23:15:00.510Z,2.17
2022-08-24T23:17:26.940Z,2.00
2022-08-24T23:20:05.355Z,2.53
2022-08-24T23:22:36.522Z,1.90
2022-08-24T23:25:03.902Z,1.95
2022-08-24T23:27:36.421Z,2.03
2022-08-24T23:30:09.037Z,1.88
2022-08-24T23:32:35.448Z,2.03
2022-08-24T23:35:01.989Z,2.15
2022-08-24T23:37:28.635Z,1.90
2022-08-24T23:39:55.252Z,1.70
2022-08-24T23:42:21.734Z,1.83
2022-08-24T23:44:48.395Z,2.30
2022-08-24T23:47:15.380Z,2.03
2022-08-24T23:49:41.878Z,1.90
2022-08-24T23:52:08.823Z,1.92
2022-08-24T23:54:52.642Z,2.00
2022-08-24T23:57:19.167Z,2.38
2022-08-24T23:59:45.563Z,2.10
